Latest Weather Observations for Sellicks Hill

IDS60901

Issued at 11:31 am CDT Tuesday 28 February 2017 (issued every 10 minutes, with the page automatically refreshed every 10 minutes)

About weather observations | Map of Adelaide area stations | Latest observations for Adelaide area | Other Formats
Station Details ID: 023886 Name: MOUNT TERRIBLE RADAR Lat: -35.33 Lon: 138.50 Height: 385.7 m
Data from the previous 72 hours. | See also: Recent months for locations in South Australia
Date/Time
CDT
Temp
°C
App
Temp
°C
Dew
Point
°C
Rel
Hum
%
Delta-T
°C
Wind Press
QNH
hPa
Press
MSL
hPa
Rain since
9am
mm
Dir  Spd
km/h
Gust
km/h
Spd
kts
Gust
kts
28/11:00am - - - - - N 6 13 3 7 - - -
28/10:30am - - - - - N 7 13 4 7 - - -
28/10:00am - - - - - N 7 15 4 8 - - -
28/09:30am - - - - - NNE 11 19 6 10 - - -
28/09:00am - - - - - NNE 13 28 7 15 - - -
28/08:30am - - - - - NNE 17 28 9 15 - - -
28/08:00am - - - - - NNE 20 33 11 18 - - -
28/07:30am - - - - - NNE 26 43 14 23 - - -
28/07:00am - - - - - NNE 24 41 13 22 - - -
28/06:35am - - - - - NE 28 48 15 26 - - -
28/06:30am - - - - - NE 26 41 14 22 - - -
28/06:00am - - - - - NE 26 46 14 25 - - -
28/05:42am - - - - - NE 30 50 16 27 - - -
28/05:30am - - - - - NE 32 50 17 27 - - -
28/05:08am - - - - - NE 28 48 15 26 - - -
28/05:00am - - - - - NE 28 44 15 24 - - -
28/04:35am - - - - - NE 32 50 17 27 - - -
28/04:30am - - - - - NE 32 48 17 26 - - -
28/04:00am - - - - - ENE 35 46 19 25 - - -
28/03:30am - - - - - ENE 32 46 17 25 - - -
28/03:00am - - - - - E 24 33 13 18 - - -
28/02:30am - - - - - SE 22 28 12 15 - - -
28/02:00am - - - - - SE 30 35 16 19 - - -
28/01:30am - - - - - SE 33 41 18 22 - - -
28/01:00am - - - - - SE 35 44 19 24 - - -
28/12:30am - - - - - SE 32 39 17 21 - - -
28/12:00am - - - - - SE 33 39 18 21 - - -
 
Date/Time
CDT
Temp
°C
App
Temp
°C
Dew
Point
°C
Rel
Hum
%
Delta-T
°C
Wind Press
QNH
hPa
Press
MSL
hPa
Rain since
9am
mm
Dir  Spd
km/h
Gust
km/h
Spd
kts
Gust
kts
27/11:30pm - - - - - SE 32 35 17 19 - - -
27/11:00pm - - - - - SE 32 37 17 20 - - -
27/10:30pm - - - - - SE 32 35 17 19 - - -
27/10:00pm - - - - - SE 32 39 17 21 - - -
27/09:30pm - - - - - SE 32 37 17 20 - - -
27/09:00pm - - - - - SE 32 35 17 19 - - -
27/08:30pm - - - - - SSE 32 35 17 19 - - -
27/08:00pm - - - - - SSE 32 37 17 20 - - -
27/07:30pm - - - - - SSE 28 32 15 17 - - -
27/07:00pm - - - - - SSE 26 30 14 16 - - -
27/06:30pm - - - - - SSE 26 28 14 15 - - -
27/06:00pm - - - - - SSE 24 26 13 14 - - -
27/05:30pm - - - - - SSE 24 30 13 16 - - -
27/05:00pm - - - - - SSE 22 28 12 15 - - -
27/04:30pm - - - - - SSE 22 26 12 14 - - -
27/04:00pm - - - - - SSE 20 28 11 15 - - -
27/03:30pm - - - - - ENE 9 20 5 11 - - -
27/03:00pm - - - - - E 11 17 6 9 - - -
27/02:30pm - - - - - ESE 9 19 5 10 - - -
27/02:00pm - - - - - E 13 24 7 13 - - -
27/01:30pm - - - - - ESE 15 24 8 13 - - -
27/01:00pm - - - - - E 11 20 6 11 - - -
27/12:30pm - - - - - ESE 11 15 6 8 - - -
27/12:00pm - - - - - E 9 17 5 9 - - -
27/11:30am - - - - - ESE 15 22 8 12 - - -
27/11:00am - - - - - ESE 17 24 9 13 - - -
27/10:30am - - - - - ESE 15 22 8 12 - - -
27/10:00am - - - - - ESE 17 26 9 14 - - -
27/09:30am - - - - - ESE 19 30 10 16 - - -
27/09:00am - - - - - SE 19 26 10 14 - - -
27/08:30am - - - - - SE 20 26 11 14 - - -
27/08:00am - - - - - ESE 20 28 11 15 - - -
27/07:30am - - - - - ESE 20 28 11 15 - - -
27/07:00am - - - - - ESE 20 26 11 14 - - -
27/06:30am - - - - - ESE 20 28 11 15 - - -
27/06:00am - - - - - ESE 22 30 12 16 - - -
27/05:30am - - - - - ESE 20 28 11 15 - - -
27/05:00am - - - - - ESE 22 28 12 15 - - -
27/04:30am - - - - - ESE 24 30 13 16 - - -
27/04:00am - - - - - SE 28 32 15 17 - - -
27/03:30am - - - - - SE 28 32 15 17 - - -
27/03:00am - - - - - SE 28 33 15 18 - - -
27/02:30am - - - - - SE 28 33 15 18 - - -
27/02:00am - - - - - SE 30 35 16 19 - - -
27/01:30am - - - - - SE 32 35 17 19 - - -
27/01:00am - - - - - SE 32 33 17 18 - - -
27/12:30am - - - - - SE 30 32 16 17 - - -
27/12:00am - - - - - SE 28 32 15 17 - - -
 
Date/Time
CDT
Temp
°C
App
Temp
°C
Dew
Point
°C
Rel
Hum
%
Delta-T
°C
Wind Press
QNH
hPa
Press
MSL
hPa
Rain since
9am
mm
Dir  Spd
km/h
Gust
km/h
Spd
kts
Gust
kts
26/11:30pm - - - - - SSE 28 30 15 16 - - -
26/11:00pm - - - - - SSE 26 28 14 15 - - -
26/10:30pm - - - - - SSE 26 30 14 16 - - -
26/10:00pm - - - - - SSE 26 28 14 15 - - -
26/09:30pm - - - - - SSE 28 32 15 17 - - -
26/09:00pm - - - - - SSE 28 32 15 17 - - -
26/08:30pm - - - - - SSE 28 32 15 17 - - -
26/08:00pm - - - - - SSE 28 32 15 17 - - -
26/07:30pm - - - - - SSE 30 33 16 18 - - -
26/07:00pm - - - - - SSE 28 32 15 17 - - -
26/06:30pm - - - - - SSE 24 30 13 16 - - -
26/06:00pm - - - - - SSE 22 26 12 14 - - -
26/05:30pm - - - - - SSE 22 28 12 15 - - -
26/05:00pm - - - - - SSE 20 26 11 14 - - -
26/04:30pm - - - - - SE 15 22 8 12 - - -
26/04:00pm - - - - - SE 17 24 9 13 - - -
26/03:30pm - - - - - SSE 15 24 8 13 - - -
26/03:00pm - - - - - ESE 11 19 6 10 - - -
26/02:30pm - - - - - ESE 11 19 6 10 - - -
26/02:00pm - - - - - E 9 17 5 9 - - -
26/01:30pm - - - - - ENE 11 20 6 11 - - -
26/01:00pm - - - - - SE 15 22 8 12 - - -
26/12:30pm - - - - - ESE 13 20 7 11 - - -
26/12:00pm - - - - - SE 15 22 8 12 - - -
26/11:30am - - - - - SE 15 20 8 11 - - -
26/11:00am - - - - - SE 17 22 9 12 - - -
26/10:30am - - - - - SE 20 28 11 15 - - -
26/10:00am - - - - - SE 26 32 14 17 - - -
26/09:30am - - - - - SE 26 33 14 18 - - -
26/09:00am - - - - - SE 28 37 15 20 - - -
26/08:30am - - - - - SE 30 37 16 20 - - -
26/08:00am - - - - - SE 30 37 16 20 - - -
26/07:30am - - - - - SE 32 39 17 21 - - -
26/07:00am - - - - - SE 28 35 15 19 - - -
26/06:30am - - - - - SE 28 35 15 19 - - -
26/06:00am - - - - - SE 28 35 15 19 - - -
26/05:30am - - - - - SE 26 33 14 18 - - -
26/05:00am - - - - - SE 22 32 12 17 - - -
26/04:30am - - - - - SE 24 33 13 18 - - -
26/04:00am - - - - - SE 26 35 14 19 - - -
26/03:30am - - - - - SE 33 39 18 21 - - -
26/03:00am - - - - - SE 37 46 20 25 - - -
26/02:30am - - - - - SE 37 46 20 25 - - -
26/02:00am - - - - - SE 41 50 22 27 - - -
26/01:30am - - - - - SE 39 48 21 26 - - -
26/01:00am - - - - - SE 39 48 21 26 - - -
26/12:30am - - - - - SSE 41 48 22 26 - - -
26/12:00am - - - - - SSE 43 48 23 26 - - -
 
Date/Time
CDT
Temp
°C
App
Temp
°C
Dew
Point
°C
Rel
Hum
%
Delta-T
°C
Wind Press
QNH
hPa
Press
MSL
hPa
Rain since
9am
mm
Dir  Spd
km/h
Gust
km/h
Spd
kts
Gust
kts
25/11:30pm - - - - - SSE 41 46 22 25 - - -
25/11:00pm - - - - - SSE 44 52 24 28 - - -
25/10:30pm - - - - - SSE 52 59 28 32 - - -
25/10:00pm - - - - - SSE 48 57 26 31 - - -
25/09:30pm - - - - - SSE 37 46 20 25 - - -
25/09:00pm - - - - - SSE 41 50 22 27 - - -
25/08:30pm - - - - - SSE 41 46 22 25 - - -
25/08:00pm - - - - - SSE 39 50 21 27 - - -
25/07:30pm - - - - - SSE 44 56 24 30 - - -
25/07:00pm - - - - - SSE 43 50 23 27 - - -
25/06:30pm - - - - - SSE 43 52 23 28 - - -
25/06:00pm - - - - - SSE 43 52 23 28 - - -
25/05:30pm - - - - - SSE 41 50 22 27 - - -
25/05:00pm - - - - - SSE 43 57 23 31 - - -
25/04:30pm - - - - - SSE 43 54 23 29 - - -
25/04:00pm - - - - - SSE 44 57 24 31 - - -
25/03:30pm - - - - - SSE 41 59 22 32 - - -
25/03:00pm - - - - - SSE 37 46 20 25 - - -
25/02:30pm - - - - - SSE 33 46 18 25 - - -
25/02:00pm - - - - - SSE 35 44 19 24 - - -
25/01:30pm - - - - - SSE 35 46 19 25 - - -
25/01:00pm - - - - - SSE 30 43 16 23 - - -
25/12:30pm - - - - - SE 33 46 18 25 - - -
25/12:00pm - - - - - SE 30 41 16 22 - - -

Latest Capital City Observations: Canberra | Sydney | Melbourne | Brisbane | Adelaide | Perth | Hobart | Darwin

Other Formats:

Comma delimited format used in spreadsheet applications
http://www.bom.gov.au/fwo/IDS60901/IDS60901.95679.axf

JavaScript Object Notation format (JSON) in row-major order
http://www.bom.gov.au/fwo/IDS60901/IDS60901.95679.json